KESN/ESN METAR and TAF weather

Enter ICAO airport designator
Station Type Date Time Source
KESN METAR 2020/07/02 21:50 UTC NOAA

KESN 022150Z 30005KT 10SM SKC 32/19 A2988


Station Type Date Time Source
KESN Decoded METAR 2020/07/02 21:50 UTC NOAA

Easton / Newman Field, MD, United States (KESN) 38-48N 076-04W
Jul 02, 2020 - 05:50 PM EDT / 2020.07.02 2150 UTC
Wind: from the WNW (300 degrees) at 6 MPH (5 KT):0
Visibility: 10 mile(s):0
Sky conditions: clear
Temperature: 89 F (32 C)
Dew Point: 66 F (19 C)
Relative Humidity: 46%
Pressure (altimeter): 29.88 in. Hg (1011 hPa)
ob: KESN 022150Z 30005KT 10SM SKC 32/19 A2988
cycle: 22

Station Type Date Time Source
KESN TAF UTC NOAA

Error!

Example: see airport list